Dingmans Ferry, PA (18328)

1:32 PM EDT on May 25, 2015 (GMT -0400)
RAWS | | Change Station
CLOSE
Current Station
Personal Weather Station
Location: Layton, NJ
Elevation: 886 ft
Nearby Weather Stations

Elev 886 ft 41.20 °N, 74.89 °W | Updated 48 minutes ago

Clear
Clear
82 °F
Feels Like 82 °F
N
7
Wind Variable Wind from WSW
Gusts 16.0 mph

Today
High -- | Low -- °F
--% Chance of Precip.
Yesterday
High -- | Low -- °F
Precip. -- in
5:33 AM 8:20 PM
Waxing Crescent, 50% visible
Pressure 30.20 in
Visibility 10.0 miles
Clouds Clear
Heat Index 82 °F
Dew Point 59 °F
Humidity 45%
Rainfall in
Snow Depth Not available.
UV 11 out of 12
Pollen 9.00 out of 12
Air Quality Not available.
Flu Activity Sporadic
METAR KFWN 251653Z AUTO 25007KT 210V290 10SM CLR 28/14 A3021 RMK AO2 SLP226 T02830144

More Conditions Fewer Conditions

Pressure 30.20 in
Visibility 10.0 miles
Clouds Clear
Heat Index 82 °F
Dew Point 59 °F
Humidity 45%
Rainfall in
Snow Depth Not available.
UV 11 out of 12
Pollen 9.00 out of 12
Air Quality Not available.
Flu Activity Sporadic
METAR KFWN 251653Z AUTO 25007KT 210V290 10SM CLR 28/14 A3021 RMK AO2 SLP226 T02830144

More Conditions Fewer Conditions

10-Day Weather Forecast

Almanac

Astronomy

May. 25, 2015 Rise Set
Actual Time
Civil Twilight
Nautical Twilight
Astronomical Twilight
Moon
Length of Visible Light
Length of Day
Tomorrow will be .
, % of the Moon is Illuminated

Today's Extremes

State Highs State Lows

Community

WunderPhotos

Upload Photos

1,824,070 photos uploaded!

WunderBlogs® & News

Nearby

Air Quality

  Air Quality AQ Index Pollutant
Not available.

Snow Depth

Station Depth Elevation

Earthquake Activity

City Distance Mag. Time & Date
Minimum magnitude displayed is 2.5.

Coastal Water Temperatures

Place Temperature

Stations

Nearby Weather Stations

Station Location Temp. Windchill Dew Point Humidity Wind Precip. Elev Updated Type